Klamath, California
Current Conditions -  °F | °C
As of 11:56 PM on Thursday 18 Dec 2014 (Local Time) from KCEC Reporting Station
Light Rain Light Rain  
Wind Chill: 50°   Ceiling: 4700
Heat Index: 50°   Visibility: 5mi
Dew Point: 49°   Wind: 10mph
Humidity: 96%   Direction: 120°ESE
Pressure: 30"   Gusts: NA
Location:  41.53°N, 124.04°W
Report Text: KCEC 190756Z AUTO 12009KT 5SM -RA BR BKN047 OVC070 10/09 A3000 RMK AO2 SLP158 P0006 T01000094 401500100 $
Loading
Personal Weather Stations






























Interactive Weather Map New forecast layout! Learn more

10-Day Weather Forecast

Advertisements
Track Severe Weather on mobile